sensor_id;sensor_type;location;lat;lon;timestamp;P1;durP1;ratioP1;P2;durP2;ratioP2
7410;SDS011;3747;48.628;9.058;2022-11-20T00:02:09;4.67;;;4.27;;
7410;SDS011;3747;48.628;9.058;2022-11-20T00:04:35;5.50;;;4.40;;
7410;SDS011;3747;48.628;9.058;2022-11-20T00:07:02;6.00;;;4.73;;
7410;SDS011;3747;48.628;9.058;2022-11-20T00:09:30;6.93;;;4.88;;
7410;SDS011;3747;48.628;9.058;2022-11-20T00:11:57;5.20;;;4.00;;
7410;SDS011;3747;48.628;9.058;2022-11-20T00:14:23;4.93;;;3.83;;
7410;SDS011;3747;48.628;9.058;2022-11-20T00:16:50;3.67;;;3.37;;
7410;SDS011;3747;48.628;9.058;2022-11-20T00:19:17;3.73;;;3.33;;
7410;SDS011;3747;48.628;9.058;2022-11-20T00:21:44;9.63;;;7.07;;
7410;SDS011;3747;48.628;9.058;2022-11-20T00:24:10;3.90;;;2.97;;
7410;SDS011;3747;48.628;9.058;2022-11-20T00:26:38;2.93;;;2.73;;
7410;SDS011;3747;48.628;9.058;2022-11-20T00:29:05;3.30;;;3.00;;
7410;SDS011;3747;48.628;9.058;2022-11-20T00:31:34;5.03;;;3.27;;
7410;SDS011;3747;48.628;9.058;2022-11-20T00:34:01;4.93;;;3.83;;
7410;SDS011;3747;48.628;9.058;2022-11-20T00:36:29;4.60;;;4.00;;
7410;SDS011;3747;48.628;9.058;2022-11-20T00:38:59;4.43;;;4.03;;
7410;SDS011;3747;48.628;9.058;2022-11-20T00:41:26;5.70;;;4.17;;
7410;SDS011;3747;48.628;9.058;2022-11-20T00:43:56;4.63;;;4.13;;
7410;SDS011;3747;48.628;9.058;2022-11-20T00:46:23;4.40;;;3.67;;
7410;SDS011;3747;48.628;9.058;2022-11-20T00:48:51;4.67;;;3.40;;
7410;SDS011;3747;48.628;9.058;2022-11-20T00:51:19;3.33;;;3.03;;
7410;SDS011;3747;48.628;9.058;2022-11-20T00:53:46;4.27;;;3.50;;
7410;SDS011;3747;48.628;9.058;2022-11-20T00:56:14;3.83;;;3.37;;
7410;SDS011;3747;48.628;9.058;2022-11-20T00:58:43;4.07;;;2.73;;
7410;SDS011;3747;48.628;9.058;2022-11-20T01:01:13;4.33;;;3.80;;
7410;SDS011;3747;48.628;9.058;2022-11-20T01:03:41;5.60;;;3.23;;
7410;SDS011;3747;48.628;9.058;2022-11-20T01:06:09;7.83;;;4.43;;
7410;SDS011;3747;48.628;9.058;2022-11-20T01:08:37;3.73;;;3.13;;
7410;SDS011;3747;48.628;9.058;2022-11-20T01:11:05;4.67;;;3.83;;
7410;SDS011;3747;48.628;9.058;2022-11-20T01:13:33;3.57;;;3.27;;
7410;SDS011;3747;48.628;9.058;2022-11-20T01:16:04;6.37;;;3.00;;
7410;SDS011;3747;48.628;9.058;2022-11-20T01:18:33;4.63;;;3.10;;
7410;SDS011;3747;48.628;9.058;2022-11-20T01:21:01;4.10;;;3.50;;
7410;SDS011;3747;48.628;9.058;2022-11-20T01:23:32;4.37;;;3.50;;
7410;SDS011;3747;48.628;9.058;2022-11-20T01:26:00;5.27;;;3.53;;
7410;SDS011;3747;48.628;9.058;2022-11-20T01:28:28;6.63;;;3.43;;
7410;SDS011;3747;48.628;9.058;2022-11-20T01:30:55;4.17;;;3.77;;
7410;SDS011;3747;48.628;9.058;2022-11-20T01:33:22;4.30;;;3.83;;
7410;SDS011;3747;48.628;9.058;2022-11-20T01:35:51;5.97;;;4.00;;
7410;SDS011;3747;48.628;9.058;2022-11-20T01:38:18;7.47;;;4.43;;
7410;SDS011;3747;48.628;9.058;2022-11-20T01:40:53;6.87;;;4.80;;
7410;SDS011;3747;48.628;9.058;2022-11-20T01:43:20;6.03;;;4.73;;
7410;SDS011;3747;48.628;9.058;2022-11-20T01:48:38;7.00;;;4.17;;
7410;SDS011;3747;48.628;9.058;2022-11-20T01:51:15;5.37;;;4.70;;
7410;SDS011;3747;48.628;9.058;2022-11-20T01:53:46;6.53;;;4.87;;
7410;SDS011;3747;48.628;9.058;2022-11-20T01:56:14;6.23;;;5.07;;
7410;SDS011;3747;48.628;9.058;2022-11-20T01:58:42;7.33;;;5.93;;
7410;SDS011;3747;48.628;9.058;2022-11-20T02:01:12;5.83;;;5.23;;
7410;SDS011;3747;48.628;9.058;2022-11-20T02:03:40;7.67;;;5.20;;
7410;SDS011;3747;48.628;9.058;2022-11-20T02:06:10;6.77;;;5.57;;
7410;SDS011;3747;48.628;9.058;2022-11-20T02:08:42;7.03;;;5.60;;
7410;SDS011;3747;48.628;9.058;2022-11-20T02:11:09;8.10;;;6.33;;
7410;SDS011;3747;48.628;9.058;2022-11-20T02:13:37;8.93;;;7.17;;
7410;SDS011;3747;48.628;9.058;2022-11-20T02:16:10;8.07;;;6.83;;
7410;SDS011;3747;48.628;9.058;2022-11-20T02:18:40;9.67;;;7.13;;
7410;SDS011;3747;48.628;9.058;2022-11-20T02:21:07;7.17;;;6.07;;
7410;SDS011;3747;48.628;9.058;2022-11-20T02:26:19;9.93;;;6.77;;
7410;SDS011;3747;48.628;9.058;2022-11-20T02:28:48;8.00;;;6.50;;
7410;SDS011;3747;48.628;9.058;2022-11-20T02:31:15;10.10;;;6.97;;
7410;SDS011;3747;48.628;9.058;2022-11-20T02:33:42;7.60;;;6.30;;
7410;SDS011;3747;48.628;9.058;2022-11-20T02:36:09;9.40;;;7.10;;
7410;SDS011;3747;48.628;9.058;2022-11-20T02:38:40;8.03;;;6.60;;
7410;SDS011;3747;48.628;9.058;2022-11-20T02:41:09;7.03;;;6.27;;
7410;SDS011;3747;48.628;9.058;2022-11-20T02:43:36;8.50;;;6.00;;
7410;SDS011;3747;48.628;9.058;2022-11-20T02:46:02;7.17;;;5.97;;
7410;SDS011;3747;48.628;9.058;2022-11-20T02:48:29;8.50;;;5.93;;
7410;SDS011;3747;48.628;9.058;2022-11-20T02:50:56;8.23;;;6.47;;
7410;SDS011;3747;48.628;9.058;2022-11-20T02:53:22;8.20;;;6.30;;
7410;SDS011;3747;48.628;9.058;2022-11-20T02:55:49;6.57;;;5.30;;
7410;SDS011;3747;48.628;9.058;2022-11-20T02:58:17;7.50;;;6.03;;
7410;SDS011;3747;48.628;9.058;2022-11-20T03:00:44;10.43;;;5.60;;
7410;SDS011;3747;48.628;9.058;2022-11-20T03:03:11;8.70;;;5.23;;
7410;SDS011;3747;48.628;9.058;2022-11-20T03:05:37;6.60;;;5.70;;
7410;SDS011;3747;48.628;9.058;2022-11-20T03:08:04;5.77;;;5.17;;
7410;SDS011;3747;48.628;9.058;2022-11-20T03:10:31;6.13;;;5.53;;
7410;SDS011;3747;48.628;9.058;2022-11-20T03:12:57;6.27;;;5.37;;
7410;SDS011;3747;48.628;9.058;2022-11-20T03:15:25;5.60;;;5.03;;
7410;SDS011;3747;48.628;9.058;2022-11-20T03:17:53;6.67;;;5.33;;
7410;SDS011;3747;48.628;9.058;2022-11-20T03:20:20;5.30;;;4.70;;
7410;SDS011;3747;48.628;9.058;2022-11-20T03:22:47;6.53;;;5.30;;
7410;SDS011;3747;48.628;9.058;2022-11-20T03:25:14;5.10;;;4.60;;
7410;SDS011;3747;48.628;9.058;2022-11-20T03:27:41;6.87;;;5.80;;
7410;SDS011;3747;48.628;9.058;2022-11-20T03:30:08;6.97;;;4.80;;
7410;SDS011;3747;48.628;9.058;2022-11-20T03:32:37;7.33;;;4.77;;
7410;SDS011;3747;48.628;9.058;2022-11-20T03:35:04;8.80;;;4.70;;
7410;SDS011;3747;48.628;9.058;2022-11-20T03:37:31;7.17;;;4.57;;
7410;SDS011;3747;48.628;9.058;2022-11-20T03:39:58;5.50;;;4.97;;
7410;SDS011;3747;48.628;9.058;2022-11-20T03:42:25;6.30;;;4.57;;
7410;SDS011;3747;48.628;9.058;2022-11-20T03:45:20;6.03;;;5.43;;
7410;SDS011;3747;48.628;9.058;2022-11-20T03:47:48;7.43;;;4.43;;
7410;SDS011;3747;48.628;9.058;2022-11-20T03:50:15;6.77;;;4.73;;
7410;SDS011;3747;48.628;9.058;2022-11-20T03:52:42;7.53;;;4.17;;
7410;SDS011;3747;48.628;9.058;2022-11-20T03:55:09;6.93;;;4.87;;
7410;SDS011;3747;48.628;9.058;2022-11-20T03:57:36;5.47;;;4.77;;
7410;SDS011;3747;48.628;9.058;2022-11-20T04:00:03;6.23;;;5.00;;
7410;SDS011;3747;48.628;9.058;2022-11-20T04:02:30;7.07;;;5.40;;
7410;SDS011;3747;48.628;9.058;2022-11-20T04:04:58;7.60;;;4.77;;
7410;SDS011;3747;48.628;9.058;2022-11-20T04:07:25;5.67;;;4.70;;
7410;SDS011;3747;48.628;9.058;2022-11-20T04:09:52;9.50;;;5.97;;
7410;SDS011;3747;48.628;9.058;2022-11-20T04:12:18;7.27;;;5.53;;
7410;SDS011;3747;48.628;9.058;2022-11-20T04:14:45;6.20;;;5.00;;
7410;SDS011;3747;48.628;9.058;2022-11-20T04:17:12;7.03;;;5.47;;
7410;SDS011;3747;48.628;9.058;2022-11-20T04:19:38;6.17;;;4.83;;
7410;SDS011;3747;48.628;9.058;2022-11-20T04:22:06;5.00;;;4.50;;
7410;SDS011;3747;48.628;9.058;2022-11-20T04:24:33;4.57;;;4.17;;
7410;SDS011;3747;48.628;9.058;2022-11-20T04:27:00;5.00;;;4.50;;
7410;SDS011;3747;48.628;9.058;2022-11-20T04:29:27;7.80;;;4.30;;
7410;SDS011;3747;48.628;9.058;2022-11-20T04:31:53;4.57;;;4.13;;
7410;SDS011;3747;48.628;9.058;2022-11-20T04:34:20;4.10;;;3.70;;
7410;SDS011;3747;48.628;9.058;2022-11-20T04:36:47;4.63;;;4.17;;
7410;SDS011;3747;48.628;9.058;2022-11-20T04:39:15;4.37;;;3.97;;
7410;SDS011;3747;48.628;9.058;2022-11-20T04:41:42;5.17;;;4.30;;
7410;SDS011;3747;48.628;9.058;2022-11-20T04:44:09;4.37;;;3.97;;
7410;SDS011;3747;48.628;9.058;2022-11-20T04:46:36;4.37;;;3.77;;
7410;SDS011;3747;48.628;9.058;2022-11-20T04:49:04;4.13;;;3.83;;
7410;SDS011;3747;48.628;9.058;2022-11-20T04:51:31;6.40;;;3.97;;
7410;SDS011;3747;48.628;9.058;2022-11-20T04:53:59;3.97;;;3.53;;
7410;SDS011;3747;48.628;9.058;2022-11-20T04:56:27;3.70;;;3.40;;
7410;SDS011;3747;48.628;9.058;2022-11-20T04:58:54;3.73;;;3.40;;
7410;SDS011;3747;48.628;9.058;2022-11-20T05:01:21;3.80;;;3.43;;
7410;SDS011;3747;48.628;9.058;2022-11-20T05:03:49;3.73;;;3.43;;
7410;SDS011;3747;48.628;9.058;2022-11-20T05:06:18;5.53;;;3.77;;
7410;SDS011;3747;48.628;9.058;2022-11-20T05:08:45;6.07;;;3.73;;
7410;SDS011;3747;48.628;9.058;2022-11-20T05:11:13;4.03;;;3.57;;
7410;SDS011;3747;48.628;9.058;2022-11-20T05:13:42;4.67;;;4.23;;
7410;SDS011;3747;48.628;9.058;2022-11-20T05:16:10;12.57;;;7.73;;
7410;SDS011;3747;48.628;9.058;2022-11-20T05:18:38;6.67;;;4.87;;
7410;SDS011;3747;48.628;9.058;2022-11-20T05:21:06;3.93;;;3.50;;
7410;SDS011;3747;48.628;9.058;2022-11-20T05:23:33;3.80;;;3.20;;
7410;SDS011;3747;48.628;9.058;2022-11-20T05:26:01;4.00;;;3.40;;
7410;SDS011;3747;48.628;9.058;2022-11-20T05:28:28;3.77;;;3.03;;
7410;SDS011;3747;48.628;9.058;2022-11-20T05:31:03;3.27;;;2.97;;
7410;SDS011;3747;48.628;9.058;2022-11-20T05:33:30;3.47;;;3.17;;
7410;SDS011;3747;48.628;9.058;2022-11-20T05:35:58;3.80;;;3.40;;
7410;SDS011;3747;48.628;9.058;2022-11-20T05:38:24;4.40;;;3.37;;
7410;SDS011;3747;48.628;9.058;2022-11-20T05:40:51;4.63;;;3.30;;
7410;SDS011;3747;48.628;9.058;2022-11-20T05:43:18;3.50;;;3.20;;
7410;SDS011;3747;48.628;9.058;2022-11-20T05:45:51;3.30;;;3.00;;
7410;SDS011;3747;48.628;9.058;2022-11-20T05:48:19;4.80;;;4.03;;
7410;SDS011;3747;48.628;9.058;2022-11-20T05:50:46;3.93;;;3.23;;
7410;SDS011;3747;48.628;9.058;2022-11-20T05:53:13;3.23;;;2.93;;
7410;SDS011;3747;48.628;9.058;2022-11-20T05:55:40;4.90;;;3.90;;
7410;SDS011;3747;48.628;9.058;2022-11-20T05:58:07;3.80;;;3.17;;
7410;SDS011;3747;48.628;9.058;2022-11-20T06:00:33;4.00;;;3.13;;
7410;SDS011;3747;48.628;9.058;2022-11-20T06:03:00;3.67;;;2.90;;
7410;SDS011;3747;48.628;9.058;2022-11-20T06:05:28;4.20;;;3.80;;
7410;SDS011;3747;48.628;9.058;2022-11-20T06:07:55;4.27;;;3.60;;
7410;SDS011;3747;48.628;9.058;2022-11-20T06:10:22;3.37;;;3.07;;
7410;SDS011;3747;48.628;9.058;2022-11-20T06:12:48;4.20;;;3.90;;
7410;SDS011;3747;48.628;9.058;2022-11-20T06:15:15;3.53;;;3.23;;
7410;SDS011;3747;48.628;9.058;2022-11-20T06:17:42;3.30;;;3.00;;
7410;SDS011;3747;48.628;9.058;2022-11-20T06:20:09;4.77;;;3.60;;
7410;SDS011;3747;48.628;9.058;2022-11-20T06:22:37;12.53;;;8.30;;
7410;SDS011;3747;48.628;9.058;2022-11-20T06:25:04;5.80;;;4.57;;
7410;SDS011;3747;48.628;9.058;2022-11-20T06:27:31;5.03;;;4.30;;
7410;SDS011;3747;48.628;9.058;2022-11-20T06:29:58;3.90;;;3.47;;
7410;SDS011;3747;48.628;9.058;2022-11-20T06:32:25;3.30;;;3.00;;
7410;SDS011;3747;48.628;9.058;2022-11-20T06:34:52;4.60;;;3.27;;
7410;SDS011;3747;48.628;9.058;2022-11-20T06:37:18;4.27;;;3.63;;
7410;SDS011;3747;48.628;9.058;2022-11-20T06:39:46;4.07;;;3.40;;
7410;SDS011;3747;48.628;9.058;2022-11-20T06:42:13;7.57;;;4.23;;
7410;SDS011;3747;48.628;9.058;2022-11-20T06:44:40;5.03;;;3.63;;
7410;SDS011;3747;48.628;9.058;2022-11-20T06:47:06;3.60;;;3.30;;
7410;SDS011;3747;48.628;9.058;2022-11-20T06:49:33;4.20;;;3.50;;
7410;SDS011;3747;48.628;9.058;2022-11-20T06:52:02;3.97;;;3.57;;
7410;SDS011;3747;48.628;9.058;2022-11-20T06:54:28;4.63;;;3.97;;
7410;SDS011;3747;48.628;9.058;2022-11-20T06:56:56;4.10;;;3.43;;
7410;SDS011;3747;48.628;9.058;2022-11-20T06:59:23;4.27;;;3.40;;
7410;SDS011;3747;48.628;9.058;2022-11-20T07:01:50;4.93;;;3.67;;
7410;SDS011;3747;48.628;9.058;2022-11-20T07:04:17;4.03;;;3.00;;
7410;SDS011;3747;48.628;9.058;2022-11-20T07:06:43;4.03;;;3.67;;
7410;SDS011;3747;48.628;9.058;2022-11-20T07:09:10;3.27;;;2.97;;
7410;SDS011;3747;48.628;9.058;2022-11-20T07:11:37;4.30;;;3.03;;
7410;SDS011;3747;48.628;9.058;2022-11-20T07:14:05;3.27;;;2.80;;
7410;SDS011;3747;48.628;9.058;2022-11-20T07:16:32;4.03;;;2.73;;
7410;SDS011;3747;48.628;9.058;2022-11-20T07:18:58;2.90;;;2.53;;
7410;SDS011;3747;48.628;9.058;2022-11-20T07:21:25;3.20;;;2.90;;
7410;SDS011;3747;48.628;9.058;2022-11-20T07:23:52;5.97;;;3.37;;
7410;SDS011;3747;48.628;9.058;2022-11-20T07:26:19;11.63;;;7.57;;
7410;SDS011;3747;48.628;9.058;2022-11-20T07:28:45;5.57;;;5.03;;
7410;SDS011;3747;48.628;9.058;2022-11-20T07:31:13;3.30;;;3.00;;
7410;SDS011;3747;48.628;9.058;2022-11-20T07:33:40;3.10;;;2.83;;
7410;SDS011;3747;48.628;9.058;2022-11-20T07:36:07;2.80;;;2.60;;
7410;SDS011;3747;48.628;9.058;2022-11-20T07:38:34;3.30;;;2.83;;
7410;SDS011;3747;48.628;9.058;2022-11-20T07:41:00;2.40;;;2.17;;
7410;SDS011;3747;48.628;9.058;2022-11-20T07:43:27;3.70;;;2.60;;
7410;SDS011;3747;48.628;9.058;2022-11-20T07:45:54;4.40;;;2.60;;
7410;SDS011;3747;48.628;9.058;2022-11-20T07:48:22;2.70;;;2.50;;
7410;SDS011;3747;48.628;9.058;2022-11-20T07:50:52;3.27;;;2.97;;
7410;SDS011;3747;48.628;9.058;2022-11-20T07:53:19;2.53;;;2.33;;
7410;SDS011;3747;48.628;9.058;2022-11-20T07:55:46;2.60;;;2.40;;
7410;SDS011;3747;48.628;9.058;2022-11-20T07:58:13;2.60;;;2.40;;
7410;SDS011;3747;48.628;9.058;2022-11-20T08:00:40;3.17;;;2.97;;
7410;SDS011;3747;48.628;9.058;2022-11-20T08:03:07;4.00;;;2.60;;
7410;SDS011;3747;48.628;9.058;2022-11-20T08:05:35;4.23;;;2.83;;
7410;SDS011;3747;48.628;9.058;2022-11-20T08:08:02;3.47;;;2.33;;
7410;SDS011;3747;48.628;9.058;2022-11-20T08:10:29;3.33;;;2.33;;
7410;SDS011;3747;48.628;9.058;2022-11-20T08:12:56;3.17;;;2.60;;
7410;SDS011;3747;48.628;9.058;2022-11-20T08:15:40;3.33;;;3.03;;
7410;SDS011;3747;48.628;9.058;2022-11-20T08:18:07;3.93;;;2.37;;
7410;SDS011;3747;48.628;9.058;2022-11-20T08:20:37;3.30;;;2.67;;
7410;SDS011;3747;48.628;9.058;2022-11-20T08:23:05;3.53;;;2.90;;
7410;SDS011;3747;48.628;9.058;2022-11-20T08:25:33;4.60;;;4.10;;
7410;SDS011;3747;48.628;9.058;2022-11-20T08:28:01;3.10;;;2.80;;
7410;SDS011;3747;48.628;9.058;2022-11-20T08:30:30;3.10;;;2.83;;
7410;SDS011;3747;48.628;9.058;2022-11-20T08:33:00;2.73;;;2.53;;
7410;SDS011;3747;48.628;9.058;2022-11-20T08:35:28;2.87;;;2.63;;
7410;SDS011;3747;48.628;9.058;2022-11-20T08:37:56;4.20;;;3.23;;
7410;SDS011;3747;48.628;9.058;2022-11-20T08:40:22;2.70;;;2.50;;
7410;SDS011;3747;48.628;9.058;2022-11-20T08:42:49;2.00;;;1.80;;
7410;SDS011;3747;48.628;9.058;2022-11-20T08:45:17;2.37;;;1.80;;
7410;SDS011;3747;48.628;9.058;2022-11-20T08:47:44;2.53;;;2.00;;
7410;SDS011;3747;48.628;9.058;2022-11-20T08:50:12;2.10;;;2.00;;
7410;SDS011;3747;48.628;9.058;2022-11-20T08:52:40;3.50;;;2.30;;
7410;SDS011;3747;48.628;9.058;2022-11-20T08:55:09;4.00;;;1.80;;
7410;SDS011;3747;48.628;9.058;2022-11-20T08:57:36;3.70;;;1.80;;
7410;SDS011;3747;48.628;9.058;2022-11-20T09:00:04;1.70;;;1.60;;
7410;SDS011;3747;48.628;9.058;2022-11-20T09:02:33;1.50;;;1.40;;
7410;SDS011;3747;48.628;9.058;2022-11-20T09:05:00;1.33;;;1.20;;
7410;SDS011;3747;48.628;9.058;2022-11-20T09:07:27;18.40;;;10.03;;
7410;SDS011;3747;48.628;9.058;2022-11-20T09:09:54;29.20;;;13.43;;
7410;SDS011;3747;48.628;9.058;2022-11-20T09:12:23;4.63;;;3.90;;
7410;SDS011;3747;48.628;9.058;2022-11-20T09:14:49;2.43;;;1.57;;
7410;SDS011;3747;48.628;9.058;2022-11-20T09:17:16;1.90;;;1.80;;
7410;SDS011;3747;48.628;9.058;2022-11-20T09:19:44;2.43;;;1.90;;
7410;SDS011;3747;48.628;9.058;2022-11-20T09:22:10;2.27;;;2.13;;
7410;SDS011;3747;48.628;9.058;2022-11-20T09:24:37;2.43;;;1.70;;
7410;SDS011;3747;48.628;9.058;2022-11-20T09:27:16;1.97;;;1.87;;
7410;SDS011;3747;48.628;9.058;2022-11-20T09:29:58;2.30;;;2.10;;
7410;SDS011;3747;48.628;9.058;2022-11-20T09:32:25;1.60;;;1.50;;
7410;SDS011;3747;48.628;9.058;2022-11-20T09:35:09;1.57;;;1.47;;
7410;SDS011;3747;48.628;9.058;2022-11-20T09:37:36;1.30;;;1.20;;
7410;SDS011;3747;48.628;9.058;2022-11-20T09:40:03;4.33;;;1.60;;
7410;SDS011;3747;48.628;9.058;2022-11-20T09:42:32;2.63;;;2.40;;
7410;SDS011;3747;48.628;9.058;2022-11-20T09:45:12;2.60;;;2.40;;
7410;SDS011;3747;48.628;9.058;2022-11-20T09:47:50;2.27;;;2.17;;
7410;SDS011;3747;48.628;9.058;2022-11-20T09:50:43;1.20;;;1.20;;
7410;SDS011;3747;48.628;9.058;2022-11-20T09:53:16;1.10;;;1.10;;
7410;SDS011;3747;48.628;9.058;2022-11-20T09:55:51;1.00;;;1.00;;
7410;SDS011;3747;48.628;9.058;2022-11-20T09:58:21;1.30;;;1.00;;
7410;SDS011;3747;48.628;9.058;2022-11-20T10:00:55;0.80;;;0.80;;
7410;SDS011;3747;48.628;9.058;2022-11-20T10:03:27;0.63;;;0.63;;
7410;SDS011;3747;48.628;9.058;2022-11-20T10:06:03;1.30;;;1.20;;
7410;SDS011;3747;48.628;9.058;2022-11-20T10:08:35;0.63;;;0.63;;
7410;SDS011;3747;48.628;9.058;2022-11-20T10:11:11;2.90;;;2.70;;
7410;SDS011;3747;48.628;9.058;2022-11-20T10:13:45;1.17;;;0.70;;
7410;SDS011;3747;48.628;9.058;2022-11-20T10:16:25;0.87;;;0.87;;
7410;SDS011;3747;48.628;9.058;2022-11-20T10:19:05;1.53;;;0.60;;
7410;SDS011;3747;48.628;9.058;2022-11-20T10:21:52;0.80;;;0.80;;
7410;SDS011;3747;48.628;9.058;2022-11-20T10:24:28;19.80;;;13.20;;
7410;SDS011;3747;48.628;9.058;2022-11-20T10:27:06;3.47;;;2.23;;
7410;SDS011;3747;48.628;9.058;2022-11-20T10:29:47;1.30;;;1.13;;
7410;SDS011;3747;48.628;9.058;2022-11-20T10:32:26;1.30;;;1.20;;
7410;SDS011;3747;48.628;9.058;2022-11-20T10:34:59;0.90;;;0.90;;
7410;SDS011;3747;48.628;9.058;2022-11-20T10:37:31;1.07;;;0.93;;
7410;SDS011;3747;48.628;9.058;2022-11-20T10:40:04;1.70;;;1.60;;
7410;SDS011;3747;48.628;9.058;2022-11-20T10:42:46;9.40;;;5.33;;
7410;SDS011;3747;48.628;9.058;2022-11-20T10:48:14;1.57;;;1.47;;
7410;SDS011;3747;48.628;9.058;2022-11-20T10:50:59;6.03;;;5.43;;
7410;SDS011;3747;48.628;9.058;2022-11-20T10:53:42;8.77;;;7.90;;
7410;SDS011;3747;48.628;9.058;2022-11-20T10:56:16;1.77;;;1.67;;
7410;SDS011;3747;48.628;9.058;2022-11-20T10:58:49;2.93;;;0.83;;
7410;SDS011;3747;48.628;9.058;2022-11-20T11:01:26;0.80;;;0.70;;
7410;SDS011;3747;48.628;9.058;2022-11-20T11:04:01;0.53;;;0.50;;
7410;SDS011;3747;48.628;9.058;2022-11-20T11:06:29;0.60;;;0.60;;
7410;SDS011;3747;48.628;9.058;2022-11-20T11:09:01;0.70;;;0.70;;
7410;SDS011;3747;48.628;9.058;2022-11-20T11:11:32;1.50;;;1.03;;
7410;SDS011;3747;48.628;9.058;2022-11-20T11:14:05;0.50;;;0.50;;
7410;SDS011;3747;48.628;9.058;2022-11-20T11:16:33;4.10;;;1.53;;
7410;SDS011;3747;48.628;9.058;2022-11-20T11:19:05;3.23;;;1.40;;
7410;SDS011;3747;48.628;9.058;2022-11-20T11:21:37;1.83;;;1.30;;
7410;SDS011;3747;48.628;9.058;2022-11-20T11:24:14;1.70;;;1.20;;
7410;SDS011;3747;48.628;9.058;2022-11-20T11:26:50;4.87;;;1.87;;
7410;SDS011;3747;48.628;9.058;2022-11-20T11:29:19;4.03;;;1.70;;
7410;SDS011;3747;48.628;9.058;2022-11-20T11:31:45;3.50;;;1.70;;
7410;SDS011;3747;48.628;9.058;2022-11-20T11:34:14;4.43;;;2.03;;
7410;SDS011;3747;48.628;9.058;2022-11-20T11:36:42;3.57;;;1.70;;
7410;SDS011;3747;48.628;9.058;2022-11-20T11:39:15;7.37;;;1.53;;
7410;SDS011;3747;48.628;9.058;2022-11-20T11:41:46;3.53;;;1.60;;
7410;SDS011;3747;48.628;9.058;2022-11-20T11:44:15;3.13;;;1.60;;
7410;SDS011;3747;48.628;9.058;2022-11-20T11:47:02;4.00;;;1.27;;
7410;SDS011;3747;48.628;9.058;2022-11-20T11:49:32;2.30;;;1.63;;
7410;SDS011;3747;48.628;9.058;2022-11-20T11:52:01;1.30;;;0.80;;
7410;SDS011;3747;48.628;9.058;2022-11-20T11:54:34;1.73;;;1.20;;
7410;SDS011;3747;48.628;9.058;2022-11-20T11:57:05;2.20;;;1.27;;
7410;SDS011;3747;48.628;9.058;2022-11-20T11:59:41;1.63;;;1.00;;
7410;SDS011;3747;48.628;9.058;2022-11-20T12:02:22;1.23;;;0.50;;
7410;SDS011;3747;48.628;9.058;2022-11-20T12:04:59;1.20;;;0.83;;
7410;SDS011;3747;48.628;9.058;2022-11-20T12:10:14;1.40;;;1.30;;
7410;SDS011;3747;48.628;9.058;2022-11-20T12:12:45;1.10;;;1.10;;
7410;SDS011;3747;48.628;9.058;2022-11-20T12:15:19;1.60;;;1.33;;
7410;SDS011;3747;48.628;9.058;2022-11-20T12:17:52;1.03;;;0.70;;
7410;SDS011;3747;48.628;9.058;2022-11-20T12:20:20;1.27;;;0.80;;
7410;SDS011;3747;48.628;9.058;2022-11-20T12:22:52;1.27;;;0.67;;
7410;SDS011;3747;48.628;9.058;2022-11-20T12:25:24;4.37;;;2.20;;
7410;SDS011;3747;48.628;9.058;2022-11-20T12:28:02;1.73;;;1.47;;
7410;SDS011;3747;48.628;9.058;2022-11-20T12:30:53;2.67;;;1.97;;
7410;SDS011;3747;48.628;9.058;2022-11-20T12:33:41;1.53;;;1.43;;
7410;SDS011;3747;48.628;9.058;2022-11-20T12:36:30;4.43;;;2.00;;
7410;SDS011;3747;48.628;9.058;2022-11-20T12:39:07;1.93;;;1.50;;
7410;SDS011;3747;48.628;9.058;2022-11-20T12:42:01;0.67;;;0.50;;
7410;SDS011;3747;48.628;9.058;2022-11-20T12:45:22;1.33;;;0.90;;
7410;SDS011;3747;48.628;9.058;2022-11-20T12:51:15;1.90;;;1.03;;
7410;SDS011;3747;48.628;9.058;2022-11-20T12:54:06;18.70;;;13.73;;
7410;SDS011;3747;48.628;9.058;2022-11-20T12:57:07;1.30;;;1.20;;
7410;SDS011;3747;48.628;9.058;2022-11-20T12:59:49;1.17;;;0.90;;
7410;SDS011;3747;48.628;9.058;2022-11-20T13:02:27;0.70;;;0.70;;
7410;SDS011;3747;48.628;9.058;2022-11-20T13:05:18;1.30;;;1.10;;
7410;SDS011;3747;48.628;9.058;2022-11-20T13:07:47;2.10;;;0.80;;
7410;SDS011;3747;48.628;9.058;2022-11-20T13:10:18;9.23;;;6.50;;
7410;SDS011;3747;48.628;9.058;2022-11-20T13:12:53;2.03;;;0.97;;
7410;SDS011;3747;48.628;9.058;2022-11-20T13:15:29;0.60;;;0.60;;
7410;SDS011;3747;48.628;9.058;2022-11-20T13:18:06;0.90;;;0.90;;
7410;SDS011;3747;48.628;9.058;2022-11-20T13:20:36;2.40;;;1.03;;
7410;SDS011;3747;48.628;9.058;2022-11-20T13:23:08;1.70;;;0.50;;
7410;SDS011;3747;48.628;9.058;2022-11-20T13:25:37;1.40;;;0.90;;
7410;SDS011;3747;48.628;9.058;2022-11-20T13:28:05;2.60;;;1.77;;
7410;SDS011;3747;48.628;9.058;2022-11-20T13:30:54;3.73;;;1.53;;
7410;SDS011;3747;48.628;9.058;2022-11-20T13:33:22;2.23;;;0.60;;
7410;SDS011;3747;48.628;9.058;2022-11-20T13:35:55;2.00;;;0.83;;
7410;SDS011;3747;48.628;9.058;2022-11-20T13:38:23;1.03;;;0.67;;
7410;SDS011;3747;48.628;9.058;2022-11-20T13:40:52;5.10;;;0.90;;
7410;SDS011;3747;48.628;9.058;2022-11-20T13:43:27;3.17;;;1.00;;
7410;SDS011;3747;48.628;9.058;2022-11-20T13:46:00;1.60;;;1.03;;
7410;SDS011;3747;48.628;9.058;2022-11-20T13:48:30;2.70;;;1.30;;
7410;SDS011;3747;48.628;9.058;2022-11-20T13:51:03;1.00;;;0.90;;
7410;SDS011;3747;48.628;9.058;2022-11-20T13:53:46;1.43;;;0.63;;
7410;SDS011;3747;48.628;9.058;2022-11-20T13:56:25;2.40;;;0.93;;
7410;SDS011;3747;48.628;9.058;2022-11-20T13:59:02;1.53;;;1.40;;
7410;SDS011;3747;48.628;9.058;2022-11-20T14:01:34;1.17;;;0.80;;
7410;SDS011;3747;48.628;9.058;2022-11-20T14:04:05;1.47;;;0.80;;
7410;SDS011;3747;48.628;9.058;2022-11-20T14:06:34;1.47;;;0.80;;
7410;SDS011;3747;48.628;9.058;2022-11-20T14:09:10;3.80;;;0.80;;
7410;SDS011;3747;48.628;9.058;2022-11-20T14:11:45;1.90;;;0.80;;
7410;SDS011;3747;48.628;9.058;2022-11-20T14:14:13;1.57;;;0.83;;
7410;SDS011;3747;48.628;9.058;2022-11-20T14:16:42;1.93;;;0.80;;
7410;SDS011;3747;48.628;9.058;2022-11-20T14:19:24;1.83;;;1.20;;
7410;SDS011;3747;48.628;9.058;2022-11-20T14:21:54;3.20;;;1.77;;
7410;SDS011;3747;48.628;9.058;2022-11-20T14:24:32;0.60;;;0.60;;
7410;SDS011;3747;48.628;9.058;2022-11-20T14:27:00;2.23;;;1.33;;
7410;SDS011;3747;48.628;9.058;2022-11-20T14:29:28;2.57;;;1.10;;
7410;SDS011;3747;48.628;9.058;2022-11-20T14:32:00;1.40;;;1.17;;
7410;SDS011;3747;48.628;9.058;2022-11-20T14:34:29;1.07;;;0.97;;
7410;SDS011;3747;48.628;9.058;2022-11-20T14:36:58;1.73;;;0.90;;
7410;SDS011;3747;48.628;9.058;2022-11-20T14:39:26;0.97;;;0.83;;
7410;SDS011;3747;48.628;9.058;2022-11-20T14:41:57;1.90;;;0.90;;
7410;SDS011;3747;48.628;9.058;2022-11-20T14:44:26;1.43;;;0.87;;
7410;SDS011;3747;48.628;9.058;2022-11-20T14:46:55;0.87;;;0.70;;
7410;SDS011;3747;48.628;9.058;2022-11-20T14:49:22;2.60;;;0.97;;
7410;SDS011;3747;48.628;9.058;2022-11-20T14:51:58;1.73;;;1.10;;
7410;SDS011;3747;48.628;9.058;2022-11-20T14:57:31;1.33;;;0.60;;
7410;SDS011;3747;48.628;9.058;2022-11-20T15:00:08;1.13;;;0.97;;
7410;SDS011;3747;48.628;9.058;2022-11-20T15:02:46;1.63;;;1.20;;
7410;SDS011;3747;48.628;9.058;2022-11-20T15:05:15;10.77;;;5.13;;
7410;SDS011;3747;48.628;9.058;2022-11-20T15:07:43;1.20;;;1.10;;
7410;SDS011;3747;48.628;9.058;2022-11-20T15:10:20;1.40;;;1.30;;
7410;SDS011;3747;48.628;9.058;2022-11-20T15:12:49;1.63;;;1.20;;
7410;SDS011;3747;48.628;9.058;2022-11-20T15:15:19;1.60;;;1.43;;
7410;SDS011;3747;48.628;9.058;2022-11-20T15:17:49;1.30;;;1.30;;
7410;SDS011;3747;48.628;9.058;2022-11-20T15:20:16;2.57;;;1.30;;
7410;SDS011;3747;48.628;9.058;2022-11-20T15:22:43;1.93;;;1.63;;
7410;SDS011;3747;48.628;9.058;2022-11-20T15:25:13;2.20;;;1.73;;
7410;SDS011;3747;48.628;9.058;2022-11-20T15:27:42;2.70;;;1.83;;
7410;SDS011;3747;48.628;9.058;2022-11-20T15:30:12;1.70;;;1.60;;
7410;SDS011;3747;48.628;9.058;2022-11-20T15:32:43;3.93;;;2.53;;
7410;SDS011;3747;48.628;9.058;2022-11-20T15:35:11;4.30;;;2.50;;
7410;SDS011;3747;48.628;9.058;2022-11-20T15:37:38;4.67;;;3.20;;
7410;SDS011;3747;48.628;9.058;2022-11-20T15:40:06;7.33;;;4.70;;
7410;SDS011;3747;48.628;9.058;2022-11-20T15:42:33;4.43;;;2.90;;
7410;SDS011;3747;48.628;9.058;2022-11-20T15:45:01;3.13;;;2.63;;
7410;SDS011;3747;48.628;9.058;2022-11-20T15:47:29;4.32;;;2.80;;
7410;SDS011;3747;48.628;9.058;2022-11-20T15:49:59;2.20;;;2.10;;
7410;SDS011;3747;48.628;9.058;2022-11-20T15:52:26;2.67;;;2.00;;